Time;durP1;ratioP1;P1;durP2;ratioP2;P2;SDS_P1;SDS_P2;PMS_P1;PMS_P2;Temp;Humidity;BMP_temperature;BMP_pressure;BME280_temperature;BME280_humidity;BME280_pressure;Samples;Min_cycle;Max_cycle;Signal;HPM_P1;HPM_P2
2023/04/27 00:00:27;;;;;;;;;13.33;11.67;;;;;-147.47;100.00;64613.53;5071298;28;45451;-75
2023/04/27 00:02:53;;;;;;;;;15.67;15.67;;;;;-147.47;100.00;64613.53;5071449;28;45688;-76
2023/04/27 00:05:18;;;;;;;;;13.33;13.00;;;;;-147.47;100.00;64613.53;5048284;28;46270;-75
2023/04/27 00:07:44;;;;;;;;;16.33;14.33;;;;;-147.47;100.00;64613.53;5058713;28;45710;-75
2023/04/27 00:10:12;;;;;;;;;15.33;13.67;;;;;-147.47;100.00;64613.53;5055669;28;45451;-76
2023/04/27 00:12:41;;;;;;;;;19.67;16.67;;;;;-147.47;100.00;64613.53;5042578;28;45756;-74
2023/04/27 00:15:07;;;;;;;;;18.67;15.33;;;;;-147.47;100.00;64613.53;5065339;28;45648;-75
2023/04/27 00:17:33;;;;;;;;;19.33;16.33;;;;;-147.47;100.00;64613.53;5056831;28;45636;-76
2023/04/27 00:19:59;;;;;;;;;20.00;17.67;;;;;-147.47;100.00;64613.53;5060527;28;45476;-78
2023/04/27 00:22:25;;;;;;;;;16.33;15.33;;;;;-147.47;100.00;64613.53;5042021;28;45772;-76
2023/04/27 00:24:50;;;;;;;;;22.00;17.33;;;;;-147.47;100.00;64613.53;5059905;28;45975;-74
2023/04/27 00:27:16;;;;;;;;;19.33;15.67;;;;;-147.47;100.00;64613.53;5064451;28;45733;-75
2023/04/27 00:29:41;;;;;;;;;22.00;17.67;;;;;-147.47;100.00;64613.53;5041941;28;45219;-75
2023/04/27 00:32:10;;;;;;;;;14.67;12.33;;;;;-147.47;100.00;64613.53;5061986;28;45343;-73
2023/04/27 00:34:36;;;;;;;;;13.33;12.00;;;;;-147.47;100.00;64613.53;5050127;28;45499;-75
2023/04/27 00:37:02;;;;;;;;;15.33;13.33;;;;;-147.47;100.00;64613.53;5037612;28;46207;-74
2023/04/27 00:39:28;;;;;;;;;16.00;13.67;;;;;-147.47;100.00;64613.53;5047948;28;45435;-74
2023/04/27 00:41:53;;;;;;;;;18.00;12.67;;;;;-147.47;100.00;64613.53;5044580;28;45473;-74
2023/04/27 00:44:26;;;;;;;;;14.67;13.67;;;;;-147.47;100.00;64613.53;5038691;28;46084;-74
2023/04/27 00:46:52;;;;;;;;;11.33;11.33;;;;;-147.47;100.00;64613.53;5068390;28;45497;-76
2023/04/27 00:49:22;;;;;;;;;15.67;13.33;;;;;-147.47;100.00;64613.53;5076410;28;45488;-74
2023/04/27 00:51:48;;;;;;;;;14.33;12.67;;;;;-147.47;100.00;64613.53;5044802;28;45160;-74
2023/04/27 00:54:17;;;;;;;;;15.67;14.33;;;;;-147.47;100.00;64613.53;5058178;28;45545;-76
2023/04/27 00:56:43;;;;;;;;;13.67;12.67;;;;;-147.47;100.00;64613.53;5067357;28;45472;-73
2023/04/27 00:59:08;;;;;;;;;15.00;13.67;;;;;-147.47;100.00;64613.53;5058502;28;45473;-73
2023/04/27 01:01:34;;;;;;;;;12.00;10.33;;;;;-147.47;100.00;64613.53;5057026;28;45561;-75
2023/04/27 01:04:00;;;;;;;;;13.00;12.00;;;;;-147.47;100.00;64613.53;5050633;28;45440;-77
2023/04/27 01:06:28;;;;;;;;;9.67;9.67;;;;;-147.47;100.00;64613.53;5033534;28;46124;-75
2023/04/27 01:08:54;;;;;;;;;13.67;12.67;;;;;-147.47;100.00;64613.53;5050937;28;45677;-76
2023/04/27 01:11:20;;;;;;;;;11.00;11.00;;;;;-147.47;100.00;64613.53;5063842;28;45538;-75
2023/04/27 01:13:46;;;;;;;;;13.67;12.33;;;;;-147.47;100.00;64613.53;5058269;28;45573;-74
2023/04/27 01:16:11;;;;;;;;;14.33;13.00;;;;;-147.47;100.00;64613.53;5051948;28;45706;-75
2023/04/27 01:18:39;;;;;;;;;14.33;13.00;;;;;-147.47;100.00;64613.53;5072514;28;45481;-75
2023/04/27 01:21:05;;;;;;;;;14.00;11.67;;;;;-147.47;100.00;64613.53;5026241;28;45836;-75
2023/04/27 01:23:30;;;;;;;;;14.00;12.67;;;;;-147.47;100.00;64613.53;5075914;28;45363;-75
2023/04/27 01:25:56;;;;;;;;;11.00;10.67;;;;;-147.47;100.00;64613.53;5076239;28;46958;-74
2023/04/27 01:28:21;;;;;;;;;14.33;12.67;;;;;-147.47;100.00;64613.53;5062110;28;45783;-75
2023/04/27 01:30:46;;;;;;;;;14.67;13.67;;;;;-147.47;100.00;64613.53;5058516;28;45384;-74
2023/04/27 01:33:12;;;;;;;;;14.00;13.33;;;;;-147.47;100.00;64613.53;5061581;28;45451;-74
2023/04/27 01:35:37;;;;;;;;;11.67;10.00;;;;;-147.47;100.00;64613.53;5077932;28;45845;-74
2023/04/27 01:38:03;;;;;;;;;15.00;11.33;;;;;-147.47;100.00;64613.53;5042343;28;45425;-74
2023/04/27 01:40:28;;;;;;;;;13.33;12.00;;;;;-147.47;100.00;64613.53;5057107;28;45584;-75
2023/04/27 01:42:54;;;;;;;;;11.00;11.00;;;;;-147.47;100.00;64613.53;5058308;28;45515;-75
2023/04/27 01:45:19;;;;;;;;;14.00;12.00;;;;;-147.47;100.00;64613.53;5057482;28;45340;-75
2023/04/27 01:47:45;;;;;;;;;12.00;11.00;;;;;-147.47;100.00;64613.53;5068903;28;45467;-74
2023/04/27 01:50:10;;;;;;;;;22.00;15.00;;;;;-147.47;100.00;64613.53;5051357;28;45838;-74
2023/04/27 01:52:35;;;;;;;;;12.33;12.00;;;;;-147.47;100.00;64613.53;5049769;28;45922;-75
2023/04/27 01:55:01;;;;;;;;;11.33;10.33;;;;;-147.47;100.00;64613.53;5062142;28;45456;-75
2023/04/27 01:57:26;;;;;;;;;13.33;11.33;;;;;-147.47;100.00;64613.53;5067161;28;45164;-73
2023/04/27 01:59:52;;;;;;;;;10.67;10.67;;;;;-147.47;100.00;64613.53;5069616;28;45423;-74
2023/04/27 02:02:17;;;;;;;;;16.33;13.67;;;;;-147.47;100.00;64613.53;5075254;28;45450;-75
2023/04/27 02:04:43;;;;;;;;;18.67;12.33;;;;;-147.47;100.00;64613.53;5066575;28;45391;-75
2023/04/27 02:07:09;;;;;;;;;15.67;14.67;;;;;-147.47;100.00;64613.53;5068996;28;45426;-75
2023/04/27 02:09:35;;;;;;;;;13.33;13.00;;;;;-147.47;100.00;64613.53;5055275;28;45788;-75
2023/04/27 02:12:01;;;;;;;;;15.00;12.00;;;;;-147.47;100.00;64613.53;5053781;28;47066;-75
2023/04/27 02:14:27;;;;;;;;;15.67;15.33;;;;;-147.47;100.00;64613.53;5060526;28;47535;-75
2023/04/27 02:16:52;;;;;;;;;12.33;12.33;;;;;-147.47;100.00;64613.53;5068106;28;45773;-75
2023/04/27 02:19:17;;;;;;;;;13.33;9.67;;;;;-147.47;100.00;64613.53;5075067;28;45665;-74
2023/04/27 02:21:43;;;;;;;;;10.00;10.00;;;;;-147.47;100.00;64613.53;5081393;28;45702;-75
2023/04/27 02:24:09;;;;;;;;;7.67;6.67;;;;;-147.47;100.00;64613.53;5053939;28;46662;-74
2023/04/27 02:26:34;;;;;;;;;15.00;14.00;;;;;-147.47;100.00;64613.53;5056156;28;45632;-75
2023/04/27 02:29:00;;;;;;;;;13.33;12.67;;;;;-147.47;100.00;64613.53;5060791;28;45502;-75
2023/04/27 02:31:25;;;;;;;;;12.00;11.00;;;;;-147.47;100.00;64613.53;5059902;28;46044;-75
2023/04/27 02:33:51;;;;;;;;;12.00;11.00;;;;;-147.47;100.00;64613.53;5049730;28;45753;-74
2023/04/27 02:36:18;;;;;;;;;17.33;15.00;;;;;-147.47;100.00;64613.53;5055828;28;45416;-74
2023/04/27 02:38:43;;;;;;;;;12.00;10.00;;;;;-147.47;100.00;64613.53;5060009;28;45766;-76
2023/04/27 02:41:09;;;;;;;;;10.33;10.33;;;;;-147.47;100.00;64613.53;5046469;28;45872;-75
2023/04/27 02:43:34;;;;;;;;;16.00;12.33;;;;;-147.47;100.00;64613.53;5060659;28;45296;-76
2023/04/27 02:46:03;;;;;;;;;14.33;11.00;;;;;-147.47;100.00;64613.53;5057448;28;45332;-78
2023/04/27 02:48:29;;;;;;;;;12.67;9.00;;;;;-147.47;100.00;64613.53;5053582;28;45832;-74
2023/04/27 02:50:56;;;;;;;;;15.33;14.33;;;;;-147.47;100.00;64613.53;5060224;28;45352;-76
2023/04/27 02:53:21;;;;;;;;;13.00;12.00;;;;;-147.47;100.00;64613.53;5069592;28;45578;-74
2023/04/27 02:55:47;;;;;;;;;9.33;9.33;;;;;-147.47;100.00;64613.53;5066560;28;45553;-75
2023/04/27 02:58:13;;;;;;;;;18.00;12.67;;;;;-147.47;100.00;64613.53;5066805;28;45851;-75
2023/04/27 03:00:40;;;;;;;;;11.67;10.67;;;;;-147.47;100.00;64613.53;5066899;28;45808;-75
2023/04/27 03:03:09;;;;;;;;;13.67;12.33;;;;;-147.47;100.00;64613.53;5062683;28;46159;-75
2023/04/27 03:05:36;;;;;;;;;17.67;14.67;;;;;-147.47;100.00;64613.53;5061145;28;45478;-75
2023/04/27 03:08:01;;;;;;;;;17.00;15.33;;;;;-147.47;100.00;64613.53;5054300;28;45335;-75
2023/04/27 03:10:26;;;;;;;;;16.00;16.00;;;;;-147.47;100.00;64613.53;5064674;28;45983;-74
2023/04/27 03:12:52;;;;;;;;;17.00;14.33;;;;;-147.47;100.00;64613.53;5040916;28;45599;-77
2023/04/27 03:15:17;;;;;;;;;10.33;10.33;;;;;-147.47;100.00;64613.53;5061209;28;45395;-76
2023/04/27 03:17:42;;;;;;;;;14.67;13.00;;;;;-147.47;100.00;64613.53;5060165;28;45414;-75
2023/04/27 03:20:09;;;;;;;;;18.33;16.67;;;;;-147.47;100.00;64613.53;5070834;28;45478;-74
2023/04/27 03:22:35;;;;;;;;;17.67;17.67;;;;;-147.47;100.00;64613.53;5070282;28;45478;-75
2023/04/27 03:25:01;;;;;;;;;18.67;16.67;;;;;-147.47;100.00;64613.53;5064993;28;45304;-73
2023/04/27 03:27:27;;;;;;;;;15.33;13.67;;;;;-147.47;100.00;64613.53;5073589;28;45799;-74
2023/04/27 03:29:52;;;;;;;;;22.33;19.00;;;;;-147.47;100.00;64613.53;5071864;28;45419;-73
2023/04/27 03:32:18;;;;;;;;;17.33;15.33;;;;;-147.47;100.00;64613.53;5036976;28;47742;-76
2023/04/27 03:34:44;;;;;;;;;18.33;14.67;;;;;-147.47;100.00;64613.53;5045350;28;45508;-75
2023/04/27 03:37:09;;;;;;;;;19.33;17.00;;;;;-147.47;100.00;64613.53;5051444;28;45411;-75
2023/04/27 03:39:35;;;;;;;;;21.00;17.00;;;;;-147.47;100.00;64613.53;5060538;28;45533;-76
2023/04/27 03:42:01;;;;;;;;;21.33;19.00;;;;;-147.47;100.00;64613.53;5068116;28;45742;-75
2023/04/27 03:44:26;;;;;;;;;19.67;19.33;;;;;-147.47;100.00;64613.53;5075442;28;45391;-74
2023/04/27 03:46:52;;;;;;;;;22.33;19.67;;;;;-147.47;100.00;64613.53;5072210;28;45588;-74
2023/04/27 03:49:17;;;;;;;;;24.67;21.67;;;;;-147.47;100.00;64613.53;5058527;28;45493;-77
2023/04/27 03:51:43;;;;;;;;;19.67;18.33;;;;;-147.47;100.00;64613.53;5069296;28;45519;-74
2023/04/27 03:54:08;;;;;;;;;16.67;15.00;;;;;-147.47;100.00;64613.53;5075291;28;45861;-77
2023/04/27 03:56:35;;;;;;;;;17.67;17.67;;;;;-147.47;100.00;64613.53;5061950;28;45726;-74
2023/04/27 03:59:02;;;;;;;;;18.00;16.67;;;;;-147.47;100.00;64613.53;5047778;28;45510;-76
2023/04/27 04:01:27;;;;;;;;;15.00;11.00;;;;;-147.47;100.00;64613.53;5035647;28;47542;-75
2023/04/27 04:03:53;;;;;;;;;16.67;16.67;;;;;-147.47;100.00;64613.53;5058785;28;45400;-75
2023/04/27 04:06:18;;;;;;;;;19.67;16.33;;;;;-147.47;100.00;64613.53;5055571;28;45383;-76
2023/04/27 04:08:44;;;;;;;;;14.67;13.67;;;;;-147.47;100.00;64613.53;5064136;28;45308;-75
2023/04/27 04:11:09;;;;;;;;;17.00;14.00;;;;;-147.47;100.00;64613.53;5059192;28;46332;-76
2023/04/27 04:13:35;;;;;;;;;17.00;13.67;;;;;-147.47;100.00;64613.53;5043533;28;45806;-75
2023/04/27 04:16:06;;;;;;;;;17.00;13.00;;;;;-147.47;100.00;64613.53;5057316;28;45616;-74
2023/04/27 04:18:31;;;;;;;;;27.00;24.67;;;;;-147.47;100.00;64613.53;5062999;28;45538;-75
2023/04/27 04:20:57;;;;;;;;;23.33;16.00;;;;;-147.47;100.00;64613.53;5049212;28;45696;-75
2023/04/27 04:23:23;;;;;;;;;17.00;15.67;;;;;-147.47;100.00;64613.53;5064678;28;45492;-75
2023/04/27 04:25:49;;;;;;;;;16.67;13.67;;;;;-147.47;100.00;64613.53;5048662;28;45802;-76
2023/04/27 04:28:15;;;;;;;;;18.67;16.00;;;;;-147.47;100.00;64613.53;5056941;28;45672;-76
2023/04/27 04:30:42;;;;;;;;;24.67;18.33;;;;;-147.47;100.00;64613.53;5057618;28;45819;-76
2023/04/27 04:33:07;;;;;;;;;19.00;18.00;;;;;-147.47;100.00;64613.53;5078552;28;45511;-75
2023/04/27 04:35:33;;;;;;;;;22.33;17.33;;;;;-147.47;100.00;64613.53;5076695;28;45234;-76
2023/04/27 04:37:59;;;;;;;;;16.67;14.67;;;;;-147.47;100.00;64613.53;5066193;28;45484;-75
2023/04/27 04:40:24;;;;;;;;;15.33;14.33;;;;;-147.47;100.00;64613.53;5027511;28;46161;-77
2023/04/27 04:42:50;;;;;;;;;17.00;17.00;;;;;-147.47;100.00;64613.53;5043441;28;45388;-74
2023/04/27 04:45:16;;;;;;;;;17.67;17.33;;;;;-147.47;100.00;64613.53;5035495;28;45463;-75
2023/04/27 04:47:41;;;;;;;;;22.67;18.67;;;;;-147.47;100.00;64613.53;5056921;28;45664;-76
2023/04/27 04:50:09;;;;;;;;;18.33;15.33;;;;;-147.47;100.00;64613.53;5071322;28;45792;-74
2023/04/27 04:52:35;;;;;;;;;17.00;16.33;;;;;-147.47;100.00;64613.53;5076613;28;45475;-75
2023/04/27 04:55:02;;;;;;;;;18.00;14.67;;;;;-147.47;100.00;64613.53;5062357;28;45418;-75
2023/04/27 04:57:28;;;;;;;;;14.67;13.67;;;;;-147.47;100.00;64613.53;5071134;28;45348;-75
2023/04/27 04:59:54;;;;;;;;;18.33;17.33;;;;;-147.47;100.00;64613.53;5051995;28;45514;-75
2023/04/27 05:02:19;;;;;;;;;17.67;14.00;;;;;-147.47;100.00;64613.53;5056313;28;45424;-75
2023/04/27 05:04:45;;;;;;;;;16.67;16.00;;;;;-147.47;100.00;64613.53;5055705;28;45414;-76
2023/04/27 05:07:10;;;;;;;;;18.00;18.00;;;;;-147.47;100.00;64613.53;5056672;28;45455;-77
2023/04/27 05:09:36;;;;;;;;;15.33;15.33;;;;;-147.47;100.00;64613.53;5056349;28;46990;-75
2023/04/27 05:12:01;;;;;;;;;13.67;11.67;;;;;-147.47;100.00;64613.53;5056487;28;45787;-76
2023/04/27 05:14:27;;;;;;;;;14.67;14.67;;;;;-147.47;100.00;64613.53;5042099;28;45468;-76
2023/04/27 05:16:52;;;;;;;;;22.00;17.33;;;;;-147.47;100.00;64613.53;5066149;28;46143;-77
2023/04/27 05:19:19;;;;;;;;;20.00;18.00;;;;;-147.47;100.00;64613.53;5067500;28;45555;-75
2023/04/27 05:21:45;;;;;;;;;21.67;15.33;;;;;-147.47;100.00;64613.53;5072435;28;45347;-75
2023/04/27 05:24:14;;;;;;;;;15.67;14.67;;;;;-147.47;100.00;64613.53;5073911;28;44890;-76
2023/04/27 05:26:41;;;;;;;;;19.33;19.33;;;;;-147.47;100.00;64613.53;5053513;28;45533;-76
2023/04/27 05:29:07;;;;;;;;;23.00;16.67;;;;;-147.47;100.00;64613.53;5038084;28;46829;-76
2023/04/27 05:31:33;;;;;;;;;18.00;16.67;;;;;-147.47;100.00;64613.53;5052151;28;45847;-77
2023/04/27 05:33:58;;;;;;;;;16.33;14.33;;;;;-147.47;100.00;64613.53;5070999;28;45349;-76
2023/04/27 05:36:23;;;;;;;;;17.00;16.67;;;;;-147.47;100.00;64613.53;5051565;28;47165;-75
2023/04/27 05:38:49;;;;;;;;;18.00;16.67;;;;;-147.47;100.00;64613.53;5044317;28;47827;-75
2023/04/27 05:41:14;;;;;;;;;20.00;18.00;;;;;-147.47;100.00;64613.53;5072011;28;45725;-75
2023/04/27 05:43:40;;;;;;;;;19.00;16.67;;;;;-147.47;100.00;64613.53;5069224;28;45526;-75
2023/04/27 05:46:05;;;;;;;;;19.00;17.33;;;;;-147.47;100.00;64613.53;5050471;28;45860;-75
2023/04/27 05:48:31;;;;;;;;;18.00;16.67;;;;;-147.47;100.00;64613.53;5043836;28;46447;-77
2023/04/27 05:51:02;;;;;;;;;22.00;18.67;;;;;-147.47;100.00;64613.53;5052686;28;45486;-76
2023/04/27 05:53:29;;;;;;;;;22.33;22.00;;;;;-147.47;100.00;64613.53;5063135;28;45583;-76
2023/04/27 05:55:57;;;;;;;;;21.67;18.33;;;;;-147.47;100.00;64613.53;5047193;28;46378;-77
2023/04/27 05:58:23;;;;;;;;;26.00;17.00;;;;;-147.47;100.00;64613.53;5078329;28;46187;-75
2023/04/27 06:00:49;;;;;;;;;22.00;20.00;;;;;-147.47;100.00;64613.53;5072410;28;45532;-75
2023/04/27 06:03:14;;;;;;;;;24.00;21.67;;;;;-147.47;100.00;64613.53;5058153;28;45925;-75
2023/04/27 06:05:40;;;;;;;;;20.00;18.67;;;;;-147.47;100.00;64613.53;5048700;28;45464;-75
2023/04/27 06:08:06;;;;;;;;;17.00;13.33;;;;;-147.47;100.00;64613.53;5060237;28;45470;-75
2023/04/27 06:10:31;;;;;;;;;18.00;13.67;;;;;-147.47;100.00;64613.53;5055483;28;45486;-74
2023/04/27 06:12:56;;;;;;;;;23.67;19.00;;;;;-147.47;100.00;64613.53;5065831;28;45466;-76
2023/04/27 06:15:22;;;;;;;;;20.33;15.33;;;;;-147.47;100.00;64613.53;5044050;28;47303;-74
2023/04/27 06:17:47;;;;;;;;;17.00;15.67;;;;;-147.47;100.00;64613.53;5064174;28;45422;-76
2023/04/27 06:20:13;;;;;;;;;18.00;17.00;;;;;-147.47;100.00;64613.53;5066164;28;45786;-77
2023/04/27 06:22:38;;;;;;;;;23.00;17.67;;;;;-147.47;100.00;64613.53;5067578;28;46785;-74
2023/04/27 06:25:05;;;;;;;;;21.67;18.67;;;;;-147.47;100.00;64613.53;5059940;28;46031;-75
2023/04/27 06:27:31;;;;;;;;;20.00;16.33;;;;;-147.47;100.00;64613.53;5064678;28;45709;-76
2023/04/27 06:29:57;;;;;;;;;22.00;17.67;;;;;-147.47;100.00;64613.53;5055700;28;45488;-75
2023/04/27 06:32:23;;;;;;;;;18.67;17.67;;;;;-147.47;100.00;64613.53;5061802;28;45368;-76
2023/04/27 06:34:48;;;;;;;;;16.67;14.67;;;;;-147.47;100.00;64613.53;5042420;28;47133;-77
2023/04/27 06:37:15;;;;;;;;;14.67;10.67;;;;;-147.47;100.00;64613.53;5025789;28;48267;-76
2023/04/27 06:39:42;;;;;;;;;21.33;15.67;;;;;-147.47;100.00;64613.53;5037619;28;45225;-75
2023/04/27 06:42:08;;;;;;;;;14.33;14.00;;;;;-147.47;100.00;64613.53;5055341;28;45899;-75
2023/04/27 06:44:34;;;;;;;;;15.00;15.00;;;;;-147.47;100.00;64613.53;5043757;28;45700;-78
2023/04/27 06:47:00;;;;;;;;;18.33;15.00;;;;;-147.47;100.00;64613.53;5064175;28;46557;-75
2023/04/27 06:49:25;;;;;;;;;15.00;15.00;;;;;-147.47;100.00;64613.53;5067920;28;45744;-76
2023/04/27 06:51:51;;;;;;;;;17.67;14.67;;;;;-147.47;100.00;64613.53;5047251;28;45379;-74
2023/04/27 06:54:16;;;;;;;;;17.33;13.67;;;;;-147.47;100.00;64613.53;5046837;28;47980;-75
2023/04/27 06:56:42;;;;;;;;;13.33;13.33;;;;;-147.47;100.00;64613.53;5052720;28;46555;-76
2023/04/27 06:59:08;;;;;;;;;21.00;13.67;;;;;-147.47;100.00;64613.53;5041044;28;45902;-74
2023/04/27 07:01:33;;;;;;;;;18.67;17.00;;;;;-147.47;100.00;64613.53;5059281;28;45427;-75
2023/04/27 07:03:58;;;;;;;;;16.00;15.67;;;;;-147.47;100.00;64613.53;5044673;28;45497;-73
2023/04/27 07:06:25;;;;;;;;;16.00;14.67;;;;;-147.47;100.00;64613.53;5071274;28;45398;-75
2023/04/27 07:08:51;;;;;;;;;16.00;14.33;;;;;-147.47;100.00;64613.53;5043622;28;45604;-76
2023/04/27 07:11:16;;;;;;;;;16.00;13.33;;;;;-147.47;100.00;64613.53;5067692;28;45696;-75
2023/04/27 07:13:42;;;;;;;;;23.33;16.67;;;;;-147.47;100.00;64613.53;5063151;28;45639;-74
2023/04/27 07:16:07;;;;;;;;;12.00;12.00;;;;;-147.47;100.00;64613.53;5062319;28;46347;-75
2023/04/27 07:18:33;;;;;;;;;14.67;14.67;;;;;-147.47;100.00;64613.53;5060030;28;45258;-76
2023/04/27 07:20:58;;;;;;;;;16.33;14.33;;;;;-147.47;100.00;64613.53;5060055;28;46130;-75
2023/04/27 07:23:24;;;;;;;;;20.33;13.67;;;;;-147.47;100.00;64613.53;5058781;28;45425;-76
2023/04/27 07:25:50;;;;;;;;;18.00;14.00;;;;;-147.47;100.00;64613.53;5041445;28;47355;-75
2023/04/27 07:28:16;;;;;;;;;18.00;14.33;;;;;-147.47;100.00;64613.53;5060029;28;45881;-76
2023/04/27 07:30:41;;;;;;;;;16.67;13.33;;;;;-147.47;100.00;64613.53;5059345;28;45465;-77
2023/04/27 07:33:08;;;;;;;;;15.33;11.33;;;;;-147.47;100.00;64613.53;5059529;28;45372;-75
2023/04/27 07:35:34;;;;;;;;;18.00;14.00;;;;;-147.47;100.00;64613.53;5061435;28;45423;-76
2023/04/27 07:38:01;;;;;;;;;20.33;13.33;;;;;-147.47;100.00;64613.53;5059000;28;45510;-74
2023/04/27 07:40:27;;;;;;;;;16.33;14.00;;;;;-147.47;100.00;64613.53;5062676;28;45367;-77
2023/04/27 07:42:53;;;;;;;;;14.33;14.00;;;;;-147.47;100.00;64613.53;5064480;28;45770;-74
2023/04/27 07:45:19;;;;;;;;;18.67;15.00;;;;;-147.47;100.00;64613.53;5076493;28;47206;-76
2023/04/27 07:47:45;;;;;;;;;18.67;16.33;;;;;-147.47;100.00;64613.53;5061173;28;45517;-76
2023/04/27 07:50:13;;;;;;;;;14.67;12.33;;;;;-147.47;100.00;64613.53;5040503;28;45529;-76
2023/04/27 07:52:38;;;;;;;;;13.33;11.67;;;;;-147.47;100.00;64613.53;5065267;28;45711;-75
2023/04/27 07:55:04;;;;;;;;;12.67;12.67;;;;;-147.47;100.00;64613.53;5067156;28;45785;-74
2023/04/27 07:57:30;;;;;;;;;13.00;13.00;;;;;-147.47;100.00;64613.53;5050508;28;45501;-76
2023/04/27 07:59:56;;;;;;;;;14.00;12.33;;;;;-147.47;100.00;64613.53;5058269;28;44837;-76
2023/04/27 08:02:22;;;;;;;;;14.50;12.25;;;;;-147.47;100.00;64613.53;5047754;28;46829;-73
2023/04/27 08:04:48;;;;;;;;;13.33;12.33;;;;;-147.47;100.00;64613.53;5050750;28;46360;-75
2023/04/27 08:07:15;;;;;;;;;14.33;13.33;;;;;-147.47;100.00;64613.53;5067915;28;45644;-75
2023/04/27 08:09:41;;;;;;;;;11.67;8.33;;;;;-147.47;100.00;64613.53;5026671;28;45388;-77
2023/04/27 08:12:06;;;;;;;;;14.33;13.33;;;;;-147.47;100.00;64613.53;5054606;28;46087;-75
2023/04/27 08:14:35;;;;;;;;;14.67;13.33;;;;;-147.47;100.00;64613.53;5059186;28;45391;-74
2023/04/27 08:17:00;;;;;;;;;11.67;11.67;;;;;-147.47;100.00;64613.53;5058640;28;45439;-75
2023/04/27 08:19:26;;;;;;;;;15.00;13.67;;;;;-147.47;100.00;64613.53;5051423;28;45435;-75
2023/04/27 08:21:51;;;;;;;;;12.33;10.33;;;;;-147.47;100.00;64613.53;5055716;28;45456;-75
2023/04/27 08:24:18;;;;;;;;;14.00;11.00;;;;;-147.47;100.00;64613.53;5059404;28;45764;-72
2023/04/27 08:26:43;;;;;;;;;14.33;13.67;;;;;-147.47;100.00;64613.53;5058446;28;45735;-74
2023/04/27 08:29:09;;;;;;;;;13.67;11.00;;;;;-147.47;100.00;64613.53;5059300;28;45409;-74
2023/04/27 08:31:35;;;;;;;;;9.33;8.67;;;;;-147.47;100.00;64613.53;5055747;28;45416;-77
2023/04/27 08:34:01;;;;;;;;;12.67;11.33;;;;;-147.47;100.00;64613.53;5058994;28;45585;-75
2023/04/27 08:36:27;;;;;;;;;11.00;9.67;;;;;-147.47;100.00;64613.53;5058865;28;45450;-75
2023/04/27 08:39:06;;;;;;;;;11.67;11.33;;;;;-147.47;100.00;64613.53;5059400;28;45735;-75
2023/04/27 08:41:32;;;;;;;;;11.00;9.67;;;;;-147.47;100.00;64613.53;5060087;28;45541;-75
2023/04/27 08:43:58;;;;;;;;;15.25;11.00;;;;;-147.47;100.00;64613.53;5060405;28;46702;-76
2023/04/27 08:46:27;;;;;;;;;8.75;8.25;;;;;-147.47;100.00;64613.53;5061453;28;45446;-75
2023/04/27 08:48:53;;;;;;;;;7.00;7.00;;;;;-147.47;100.00;64613.53;5060174;28;45413;-75
2023/04/27 08:51:20;;;;;;;;;7.75;7.75;;;;;-147.47;100.00;64613.53;5036954;28;46330;-77
2023/04/27 08:53:51;;;;;;;;;8.00;6.75;;;;;-147.47;100.00;64613.53;5058937;28;45439;-76
2023/04/27 08:56:17;;;;;;;;;10.00;10.00;;;;;-147.47;100.00;64613.53;5045717;28;45468;-77
2023/04/27 08:58:43;;;;;;;;;8.50;7.75;;;;;-147.47;100.00;64613.53;5065879;28;45426;-76
2023/04/27 09:01:09;;;;;;;;;12.00;10.75;;;;;-147.47;100.00;64613.53;5057643;28;45349;-76
2023/04/27 09:03:35;;;;;;;;;11.50;9.75;;;;;-147.47;100.00;64613.53;5057296;28;46068;-75
2023/04/27 09:06:02;;;;;;;;;8.50;8.50;;;;;-147.47;100.00;64613.53;5060679;28;45477;-75
2023/04/27 09:08:28;;;;;;;;;10.25;10.25;;;;;-147.47;100.00;64613.53;5064465;28;45366;-77
2023/04/27 09:10:54;;;;;;;;;12.50;11.25;;;;;-147.47;100.00;64613.53;5057669;28;45380;-76
2023/04/27 09:13:20;;;;;;;;;13.25;10.25;;;;;-147.47;100.00;64613.53;5039403;28;48224;-75
2023/04/27 09:15:51;;;;;;;;;10.50;9.00;;;;;-147.47;100.00;64613.53;5058138;28;45439;-75
2023/04/27 09:18:21;;;;;;;;;21.67;20.33;;;;;-147.47;100.00;64613.53;5058021;28;45434;-75
2023/04/27 09:20:49;;;;;;;;;20.33;17.33;;;;;-147.47;100.00;64613.53;5035571;28;46342;-77
2023/04/27 09:23:45;;;;;;;;;21.00;16.00;;;;;-147.47;100.00;64613.53;5050471;28;46138;-75
2023/04/27 09:26:20;;;;;;;;;21.00;15.33;;;;;-147.47;100.00;64613.53;5039617;28;45510;-75
2023/04/27 09:28:49;;;;;;;;;17.33;17.33;;;;;-147.47;100.00;64613.53;5056897;28;45376;-75
2023/04/27 09:31:14;;;;;;;;;15.75;14.00;;;;;-147.47;100.00;64613.53;5035628;28;45379;-76
2023/04/27 09:33:40;;;;;;;;;9.75;7.75;;;;;-147.47;100.00;64613.53;5056327;28;45255;-74
2023/04/27 09:36:06;;;;;;;;;10.00;8.75;;;;;-147.47;100.00;64613.53;5056565;28;45359;-74
2023/04/27 09:38:32;;;;;;;;;14.25;10.00;;;;;-147.47;100.00;64613.53;5063350;28;45422;-76
2023/04/27 09:40:58;;;;;;;;;14.50;12.00;;;;;-147.47;100.00;64613.53;5058741;28;46801;-74
2023/04/27 09:43:26;;;;;;;;;9.75;9.00;;;;;-147.47;100.00;64613.53;5074008;28;46265;-76
2023/04/27 09:45:53;;;;;;;;;8.50;7.00;;;;;-147.47;100.00;64613.53;5063557;28;45485;-76
2023/04/27 09:48:21;;;;;;;;;11.75;9.50;;;;;-147.47;100.00;64613.53;5075360;28;45300;-75
2023/04/27 09:50:48;;;;;;;;;8.25;7.25;;;;;-147.47;100.00;64613.53;5050191;28;45466;-76
2023/04/27 09:53:17;;;;;;;;;5.00;5.00;;;;;-147.47;100.00;64613.53;5055242;28;47340;-75
2023/04/27 09:55:45;;;;;;;;;8.25;6.25;;;;;-147.47;100.00;64613.53;5045248;28;45740;-75
2023/04/27 09:58:22;;;;;;;;;10.00;8.75;;;;;-147.47;100.00;64613.53;5035482;28;45415;-76
2023/04/27 10:00:51;;;;;;;;;9.00;7.00;;;;;-147.47;100.00;64613.53;5068178;28;45779;-77
2023/04/27 10:03:28;;;;;;;;;6.00;6.00;;;;;-147.47;100.00;64613.53;5058019;28;47252;-76
2023/04/27 10:06:27;;;;;;;;;11.50;9.00;;;;;-147.47;100.00;64613.53;5060350;28;45640;-75
2023/04/27 10:08:55;;;;;;;;;7.25;7.25;;;;;-147.47;100.00;64613.53;5057406;28;45534;-78
2023/04/27 10:11:21;;;;;;;;;9.00;7.75;;;;;-147.47;100.00;64613.53;5079408;28;45258;-78
2023/04/27 10:13:52;;;;;;;;;5.75;5.75;;;;;-147.47;100.00;64613.53;5060262;28;47866;-77
2023/04/27 10:16:21;;;;;;;;;6.00;5.00;;;;;-147.47;100.00;64613.53;5052197;28;45573;-76
2023/04/27 10:18:55;;;;;;;;;6.00;6.00;;;;;-147.47;100.00;64613.53;5063763;28;45449;-78
2023/04/27 10:21:21;;;;;;;;;6.00;6.00;;;;;-147.47;100.00;64613.53;5065775;28;45155;-77
2023/04/27 10:23:49;;;;;;;;;5.00;5.00;;;;;-147.47;100.00;64613.53;5054786;28;45552;-77
2023/04/27 10:26:26;;;;;;;;;7.75;5.25;;;;;-147.47;100.00;64613.53;5063517;28;45355;-77
2023/04/27 10:29:07;;;;;;;;;4.25;3.25;;;;;-147.47;100.00;64613.53;5048376;28;45499;-77
2023/04/27 10:31:33;;;;;;;;;5.50;5.25;;;;;-147.47;100.00;64613.53;5060386;28;45411;-77
2023/04/27 10:34:09;;;;;;;;;6.75;6.00;;;;;-147.47;100.00;64613.53;5078750;28;46468;-77
2023/04/27 10:36:39;;;;;;;;;4.00;3.00;;;;;-147.47;100.00;64613.53;5061968;28;45276;-77
2023/04/27 10:39:21;;;;;;;;;3.25;2.75;;;;;-147.47;100.00;64613.53;5052685;28;45399;-77
2023/04/27 10:41:55;;;;;;;;;5.00;5.00;;;;;-147.47;100.00;64613.53;5077602;28;45511;-77
2023/04/27 10:44:27;;;;;;;;;6.00;6.00;;;;;-147.47;100.00;64613.53;5078051;28;45407;-77
2023/04/27 10:46:54;;;;;;;;;6.00;5.00;;;;;-147.47;100.00;64613.53;5068954;28;45576;-75
2023/04/27 10:49:21;;;;;;;;;6.00;6.00;;;;;-147.47;100.00;64613.53;5050189;28;45523;-75
2023/04/27 10:51:49;;;;;;;;;5.75;5.75;;;;;-147.47;100.00;64613.53;5055319;28;45371;-76
2023/04/27 10:54:15;;;;;;;;;4.00;3.25;;;;;-147.47;100.00;64613.53;5044648;28;46765;-76